Corbridge, United Kingdom
Current Conditions -  °F | °C
As of 6:20 AM on Saturday 29 Nov 2014 (Local Time) from EGNT Reporting Station
Light Rain Light Rain  
Wind Chill:   Ceiling: 400
Heat Index:   Visibility: 1.2mi
Dew Point:   Wind: 7mph
Humidity: 100%   Direction: 130°SE
Pressure: 29.85"   Gusts: NA
Location:  54.97°N, 2.02°W
Report Text: EGNT 290620Z 13006KT 100V170 2000 -RA BR OVC004 09/09 Q1011
Loading
Personal Weather Stations






























Interactive Weather Map New forecast layout! Learn more

10-Day Weather Forecast

Advertisements
Track Severe Weather on mobile